Time;durP1;ratioP1;P1;durP2;ratioP2;P2;SDS_P1;SDS_P2;PMS_P1;PMS_P2;Temp;Humidity;BMP_temperature;BMP_pressure;BME280_temperature;BME280_humidity;BME280_pressure;Samples;Min_cycle;Max_cycle;Signal;HPM_P1;HPM_P2
2022/05/25 00:00:32;;;;;;;;;1.00;1.00;;;;;13.82;61.32;100627.50;5003015;28;45400;-78
2022/05/25 00:02:57;;;;;;;;;1.00;1.00;;;;;13.77;61.63;100618.78;4997022;28;46120;-78
2022/05/25 00:05:23;;;;;;;;;1.75;0.50;;;;;13.75;61.20;100621.50;5021602;28;45450;-76
2022/05/25 00:07:48;;;;;;;;;2.00;1.00;;;;;13.70;61.37;100618.13;5000771;28;45451;-78
2022/05/25 00:10:13;;;;;;;;;3.00;1.00;;;;;13.66;62.04;100620.03;4996343;28;45391;-78
2022/05/25 00:12:41;;;;;;;;;1.50;1.00;;;;;13.62;61.81;100620.16;4996164;28;45397;-78
2022/05/25 00:15:10;;;;;;;;;3.50;1.25;;;;;13.59;62.06;100620.25;4996902;28;45404;-78
2022/05/25 00:17:35;;;;;;;;;3.50;1.50;;;;;13.52;62.50;100606.31;4998997;28;45502;-77
2022/05/25 00:20:01;;;;;;;;;1.00;1.00;;;;;13.49;62.80;100603.75;5035578;28;45451;-76
2022/05/25 00:22:43;;;;;;;;;2.00;2.00;;;;;13.52;63.19;100608.97;5027902;28;46299;-77
2022/05/25 00:25:15;;;;;;;;;0.25;0.25;;;;;13.44;62.63;100600.38;5015431;28;45486;-78
2022/05/25 00:27:41;;;;;;;;;1.00;1.00;;;;;13.47;62.48;100605.59;5015600;28;45493;-80
2022/05/25 00:30:07;;;;;;;;;0.00;0.00;;;;;13.46;62.50;100609.16;5014729;28;45431;-77
2022/05/25 00:32:33;;;;;;;;;0.75;0.75;;;;;13.44;63.11;100617.19;5011197;28;46983;-77
2022/05/25 00:34:58;;;;;;;;;2.00;2.00;;;;;13.42;62.73;100618.13;5019917;28;45320;-78
2022/05/25 00:37:24;;;;;;;;;1.50;1.50;;;;;13.38;63.49;100616.50;5015960;28;45371;-77
2022/05/25 00:39:49;;;;;;;;;1.25;1.25;;;;;13.31;62.96;100613.97;5015716;28;45400;-77
2022/05/25 00:42:16;;;;;;;;;1.00;1.00;;;;;13.32;63.63;100618.38;5013307;28;47230;-77
2022/05/25 00:44:41;;;;;;;;;0.00;0.00;;;;;13.30;63.45;100620.22;5015056;28;45391;-77
2022/05/25 00:47:09;;;;;;;;;4.25;1.75;;;;;13.28;63.31;100627.34;5006016;28;45451;-78
2022/05/25 00:49:36;;;;;;;;;1.75;1.75;;;;;13.26;63.29;100629.19;4995427;28;45430;-77
2022/05/25 00:52:06;;;;;;;;;1.00;1.00;;;;;13.26;63.01;100633.63;5002280;28;45951;-77
2022/05/25 00:54:48;;;;;;;;;0.25;0.25;;;;;13.21;63.75;100633.78;5015811;28;45462;-77
2022/05/25 00:57:23;;;;;;;;;1.00;1.00;;;;;13.22;63.51;100637.28;5007205;28;45406;-78
2022/05/25 01:00:06;;;;;;;;;3.00;0.00;;;;;13.22;63.56;100630.19;5002380;28;45411;-78
2022/05/25 01:02:35;;;;;;;;;0.00;0.00;;;;;13.20;63.18;100632.03;5017502;28;45466;-78
2022/05/25 01:05:01;;;;;;;;;0.75;0.75;;;;;13.21;63.58;100630.25;5002502;28;45488;-78
2022/05/25 01:07:32;;;;;;;;;0.25;0.25;;;;;13.20;63.39;100634.69;4997263;28;45549;-78
2022/05/25 01:10:30;;;;;;;;;0.50;0.50;;;;;13.20;63.57;100640.00;4995906;28;45558;-78
2022/05/25 01:13:44;;;;;;;;;2.50;0.50;;;;;13.19;63.84;100638.25;4995321;28;46047;-77
2022/05/25 01:16:26;;;;;;;;;0.00;0.00;;;;;13.19;64.16;100651.50;4991663;28;46160;-78
2022/05/25 01:19:03;;;;;;;;;0.00;0.00;;;;;13.17;64.10;100652.50;4990436;28;45539;-79
2022/05/25 01:21:35;;;;;;;;;0.00;0.00;;;;;13.17;64.17;100645.41;4987252;28;45396;-78
2022/05/25 01:24:29;;;;;;;;;0.50;0.50;;;;;13.15;64.31;100647.22;4993363;28;45507;-78
2022/05/25 01:27:06;;;;;;;;;1.00;1.00;;;;;13.18;64.13;100662.19;4986651;28;45495;-78
2022/05/25 01:30:03;;;;;;;;;1.00;1.00;;;;;13.15;64.27;100657.84;4999278;28;45571;-78
2022/05/25 01:32:47;;;;;;;;;1.50;0.50;;;;;13.12;64.80;100657.94;4987013;28;45463;-79
2022/05/25 01:35:31;;;;;;;;;0.25;0.25;;;;;13.13;64.78;100662.31;5007573;28;45556;-78
2022/05/25 01:38:13;;;;;;;;;2.00;0.00;;;;;13.12;65.52;100658.81;4992976;28;45531;-78
2022/05/25 01:40:54;;;;;;;;;0.75;0.25;;;;;13.12;65.74;100657.94;4992528;28;45588;-78
2022/05/25 01:43:27;;;;;;;;;1.00;1.00;;;;;13.09;64.94;100664.19;4991066;28;45358;-78
2022/05/25 01:46:00;;;;;;;;;1.00;1.00;;;;;13.08;65.28;100667.75;5003290;28;45831;-77
2022/05/25 01:48:27;;;;;;;;;0.25;0.25;;;;;13.10;65.70;100671.25;5034210;28;45381;-78
2022/05/25 01:50:59;;;;;;;;;0.00;0.00;;;;;13.08;65.67;100672.19;5004771;28;45428;-78
2022/05/25 01:53:30;;;;;;;;;1.00;1.00;;;;;13.05;65.32;100666.97;4994153;28;45344;-77
2022/05/25 01:56:00;;;;;;;;;1.00;1.00;;;;;13.01;65.47;100676.78;5003772;28;45510;-78
2022/05/25 01:58:27;;;;;;;;;1.50;1.50;;;;;13.00;65.91;100671.53;5012987;28;45359;-76
2022/05/25 02:00:58;;;;;;;;;0.00;0.00;;;;;13.02;65.67;100675.88;5014490;28;45512;-78
2022/05/25 02:06:27;;;;;;;;;0.25;0.25;;;;;12.95;66.31;100676.97;5002874;28;45354;-77
2022/05/25 02:09:10;;;;;;;;;0.25;0.25;;;;;12.96;66.21;100676.94;5005364;28;45392;-77
2022/05/25 02:11:40;;;;;;;;;1.00;1.00;;;;;12.94;65.72;100676.13;5014621;28;45448;-78
2022/05/25 02:14:24;;;;;;;;;3.50;1.00;;;;;12.91;66.27;100681.50;5017857;28;45398;-78
2022/05/25 02:17:09;;;;;;;;;0.00;0.00;;;;;12.90;66.43;100685.06;5016826;28;46098;-78
2022/05/25 02:20:12;;;;;;;;;0.00;0.00;;;;;12.85;66.48;100681.69;5033381;28;45474;-77
2022/05/25 02:22:49;;;;;;;;;1.00;1.00;;;;;12.86;66.94;100695.81;5038157;28;45437;-77
2022/05/25 02:25:41;;;;;;;;;0.00;0.00;;;;;12.84;66.14;100690.53;5031180;28;45406;-77
2022/05/25 02:28:12;;;;;;;;;0.00;0.00;;;;;12.80;66.77;100694.22;4997940;28;45501;-77
2022/05/25 02:30:44;;;;;;;;;2.00;1.00;;;;;12.80;66.65;100697.72;4996248;28;45436;-76
2022/05/25 02:33:13;;;;;;;;;0.75;0.75;;;;;12.79;67.02;100687.16;4997659;28;45497;-78
2022/05/25 02:35:42;;;;;;;;;3.00;1.25;;;;;12.75;67.17;100682.84;4994396;28;45627;-77
2022/05/25 02:38:09;;;;;;;;;1.00;1.00;;;;;12.70;66.66;100687.41;4994198;28;45554;-77
2022/05/25 02:40:37;;;;;;;;;0.75;0.75;;;;;12.72;67.10;100691.78;4994231;28;45523;-78
2022/05/25 02:43:06;;;;;;;;;0.75;0.75;;;;;12.66;67.12;100683.09;4994642;28;45369;-78
2022/05/25 02:45:31;;;;;;;;;1.00;1.00;;;;;12.67;66.98;100698.09;4988803;28;45453;-78
2022/05/25 02:47:57;;;;;;;;;1.00;1.00;;;;;12.67;67.04;100698.09;4982083;28;46745;-77
2022/05/25 02:50:22;;;;;;;;;2.00;0.00;;;;;12.62;67.17;100704.38;4994947;28;45434;-77
2022/05/25 02:52:47;;;;;;;;;0.00;0.00;;;;;12.62;67.26;100706.19;4994743;28;45333;-77
2022/05/25 02:55:13;;;;;;;;;0.50;0.00;;;;;12.60;67.47;100714.16;4978226;28;45348;-77
2022/05/25 02:57:39;;;;;;;;;0.25;0.25;;;;;12.57;67.40;100713.34;4990543;28;45527;-78
2022/05/25 03:00:07;;;;;;;;;1.00;0.00;;;;;12.56;67.85;100715.16;4975861;28;45453;-77
2022/05/25 03:02:33;;;;;;;;;0.00;0.00;;;;;12.53;67.73;100709.06;4975832;28;45346;-78
2022/05/25 03:04:58;;;;;;;;;0.00;0.00;;;;;12.55;67.56;100710.75;4987455;28;45650;-77
2022/05/25 03:07:25;;;;;;;;;0.00;0.00;;;;;12.51;68.08;100713.53;5017573;28;47576;-77
2022/05/25 03:09:51;;;;;;;;;0.00;0.00;;;;;12.50;68.31;100715.31;5016780;28;45365;-77
2022/05/25 03:12:16;;;;;;;;;1.00;1.00;;;;;12.51;68.29;100722.38;5017097;28;45350;-78
2022/05/25 03:14:42;;;;;;;;;1.00;1.00;;;;;12.49;68.53;100729.47;5015799;28;45376;-78
2022/05/25 03:17:12;;;;;;;;;0.00;0.00;;;;;12.50;68.43;100740.97;5000266;28;45859;-77
2022/05/25 03:19:40;;;;;;;;;0.75;0.75;;;;;12.48;68.27;100738.34;5017133;28;45257;-77
2022/05/25 03:22:06;;;;;;;;;1.50;0.25;;;;;12.45;68.39;100735.78;5031922;28;45405;-77
2022/05/25 03:24:32;;;;;;;;;0.00;0.00;;;;;12.45;68.40;100746.38;5016687;28;45538;-76
2022/05/25 03:26:58;;;;;;;;;0.00;0.00;;;;;12.43;68.43;100748.19;5022331;28;45265;-77
2022/05/25 03:29:24;;;;;;;;;0.00;0.00;;;;;12.43;68.84;100742.88;5002785;28;45430;-78
2022/05/25 03:31:50;;;;;;;;;0.50;0.00;;;;;12.39;69.05;100752.69;5005244;28;45464;-78
2022/05/25 03:34:17;;;;;;;;;0.00;0.00;;;;;12.35;69.24;100755.47;5016377;28;45605;-76
2022/05/25 03:36:43;;;;;;;;;1.00;0.00;;;;;12.33;68.81;100751.97;5002105;28;45450;-77
2022/05/25 03:39:08;;;;;;;;;0.25;0.25;;;;;12.32;68.84;100753.75;5033612;28;45496;-79
2022/05/25 03:41:34;;;;;;;;;0.00;0.00;;;;;12.31;68.89;100756.44;5036136;28;45621;-77
2022/05/25 03:43:59;;;;;;;;;0.00;0.00;;;;;12.31;69.29;100764.38;5004663;28;45548;-78
2022/05/25 03:46:24;;;;;;;;;1.00;0.25;;;;;12.29;69.13;100766.22;4999823;28;45419;-78
2022/05/25 03:48:50;;;;;;;;;0.25;0.25;;;;;12.31;69.04;100775.00;5011774;28;45523;-78
2022/05/25 03:51:15;;;;;;;;;0.00;0.00;;;;;12.30;69.42;100778.53;5015964;28;45845;-78
2022/05/25 03:53:40;;;;;;;;;0.00;0.00;;;;;12.28;69.37;100781.22;5017063;28;45485;-78
2022/05/25 03:56:06;;;;;;;;;0.00;0.00;;;;;12.27;69.32;100790.09;5024685;28;45368;-77
2022/05/25 03:58:32;;;;;;;;;1.50;1.00;;;;;12.28;69.54;100791.81;5023913;28;45446;-77
2022/05/25 04:00:57;;;;;;;;;0.00;0.00;;;;;12.24;69.10;100790.19;5010955;28;45448;-77
2022/05/25 04:03:23;;;;;;;;;1.00;0.75;;;;;12.25;69.70;100795.44;5017080;28;45349;-77
2022/05/25 04:05:49;;;;;;;;;0.00;0.00;;;;;12.29;69.32;100803.31;5025927;28;46343;-78
2022/05/25 04:08:15;;;;;;;;;0.00;0.00;;;;;12.31;69.21;100797.06;5006178;28;45528;-78
2022/05/25 04:10:41;;;;;;;;;0.75;0.75;;;;;12.27;69.21;100785.66;5016179;28;45467;-77
2022/05/25 04:13:06;;;;;;;;;2.00;0.25;;;;;12.27;69.32;100784.81;5016101;28;45360;-77
2022/05/25 04:15:33;;;;;;;;;3.50;2.00;;;;;12.35;69.40;100792.56;5012879;28;45415;-78
2022/05/25 04:17:59;;;;;;;;;0.25;0.25;;;;;12.35;69.34;100797.88;4996190;28;45324;-78
2022/05/25 04:20:26;;;;;;;;;1.00;0.00;;;;;12.37;69.32;100796.91;5008004;28;45412;-77
2022/05/25 04:22:52;;;;;;;;;1.00;1.00;;;;;12.38;69.29;100801.31;5016719;28;45306;-78
2022/05/25 04:25:21;;;;;;;;;0.50;0.50;;;;;12.43;69.18;100811.78;5029974;28;48843;-78
2022/05/25 04:27:48;;;;;;;;;4.75;1.75;;;;;12.43;69.54;100802.09;4999228;28;45445;-78
2022/05/25 04:30:20;;;;;;;;;0.50;0.50;;;;;12.45;69.36;100799.41;5009324;28;45325;-79
2022/05/25 04:32:45;;;;;;;;;1.00;1.00;;;;;12.50;69.18;100805.44;5003238;28;45410;-78
2022/05/25 04:35:13;;;;;;;;;1.50;1.50;;;;;12.53;69.10;100804.50;4995005;28;45372;-79
2022/05/25 04:37:53;;;;;;;;;0.00;0.00;;;;;12.59;68.95;100813.19;5015341;28;45459;-79
2022/05/25 04:40:35;;;;;;;;;1.00;1.00;;;;;12.65;68.21;100820.13;5004204;28;45380;-78
2022/05/25 04:43:09;;;;;;;;;0.25;0.25;;;;;12.81;68.54;100812.63;4994387;28;45331;-77
2022/05/25 04:45:37;;;;;;;;;1.00;1.00;;;;;13.58;66.81;100815.91;4995797;28;46143;-78
2022/05/25 04:48:03;;;;;;;;;1.00;1.00;;;;;14.44;64.53;100825.72;4995765;28;45368;-78
2022/05/25 04:50:35;;;;;;;;;1.50;1.50;;;;;15.23;61.75;100823.97;4996749;28;45514;-79
2022/05/25 04:53:02;;;;;;;;;1.75;1.75;;;;;16.00;59.51;100825.63;4994616;28;45539;-78
2022/05/25 04:58:34;;;;;;;;;1.50;1.00;;;;;17.60;55.40;100818.09;5018654;28;45526;-78
2022/05/25 05:01:00;;;;;;;;;2.25;2.00;;;;;18.38;52.82;100826.09;5014188;28;45626;-77
2022/05/25 05:03:27;;;;;;;;;2.00;1.50;;;;;18.99;50.67;100831.09;5015606;28;45514;-77
2022/05/25 05:05:53;;;;;;;;;1.00;1.00;;;;;19.49;49.85;100820.47;5005787;28;45560;-80
2022/05/25 05:08:19;;;;;;;;;1.25;1.25;;;;;20.15;47.92;100830.31;5014415;28;45422;-78
2022/05/25 05:10:44;;;;;;;;;1.25;1.25;;;;;20.79;46.50;100824.06;5001838;28;45497;-78
2022/05/25 05:13:11;;;;;;;;;1.75;1.75;;;;;21.25;44.58;100815.91;4995114;28;45453;-78
2022/05/25 05:15:40;;;;;;;;;1.00;1.00;;;;;21.72;43.73;100824.72;4994592;28;45505;-78
2022/05/25 05:18:05;;;;;;;;;1.00;1.00;;;;;22.25;42.28;100822.25;4994963;28;45400;-79
2022/05/25 05:20:31;;;;;;;;;2.50;2.50;;;;;22.83;41.23;100828.31;5003097;28;45489;-79
2022/05/25 05:22:58;;;;;;;;;2.00;2.00;;;;;23.41;39.85;100828.84;4994342;28;45385;-79
2022/05/25 05:25:23;;;;;;;;;3.00;3.00;;;;;23.97;38.86;100835.75;4996606;28;45376;-78
2022/05/25 05:27:49;;;;;;;;;2.00;2.00;;;;;24.42;38.44;100814.44;4998523;28;45425;-78
2022/05/25 05:30:19;;;;;;;;;3.00;3.00;;;;;24.92;36.51;100836.81;5000798;28;45387;-79
2022/05/25 05:32:44;;;;;;;;;1.50;1.50;;;;;25.24;35.87;100832.59;5013523;28;45476;-77
2022/05/25 05:35:10;;;;;;;;;0.00;0.00;;;;;25.68;35.84;100820.16;5014196;28;45370;-78
2022/05/25 05:37:42;;;;;;;;;3.50;3.50;;;;;26.14;34.45;100831.84;5012668;28;45850;-79
2022/05/25 05:40:09;;;;;;;;;2.00;2.00;;;;;26.45;33.62;100818.47;5012343;28;45308;-79
2022/05/25 05:42:39;;;;;;;;;3.00;3.00;;;;;26.74;33.05;100808.78;5013980;28;45462;-79
2022/05/25 05:45:12;;;;;;;;;3.25;3.25;;;;;27.15;32.72;100802.63;5013018;28;46060;-78
2022/05/25 05:47:47;;;;;;;;;5.75;3.00;;;;;27.58;31.94;100807.91;5016781;28;45508;-77
2022/05/25 05:50:13;;;;;;;;;5.25;4.00;;;;;27.78;31.20;100800.72;5016022;28;45505;-79
2022/05/25 05:52:39;;;;;;;;;1.00;1.00;;;;;27.95;30.68;100809.19;5016187;28;45510;-78
2022/05/25 05:55:05;;;;;;;;;2.50;2.50;;;;;28.16;30.48;100807.28;5015250;28;45936;-78
2022/05/25 05:57:33;;;;;;;;;2.50;2.50;;;;;28.39;29.89;100801.59;5017640;28;45555;-78
2022/05/25 05:59:58;;;;;;;;;1.75;1.75;;;;;28.64;29.68;100804.81;5016320;28;45435;-77
2022/05/25 06:02:24;;;;;;;;;2.00;1.00;;;;;29.04;29.02;100810.06;5016765;28;45332;-80
2022/05/25 06:04:49;;;;;;;;;0.00;0.00;;;;;29.46;28.70;100811.59;5016847;28;45403;-78
2022/05/25 06:07:14;;;;;;;;;0.00;0.00;;;;;29.70;28.43;100812.91;5015798;28;45439;-79
2022/05/25 06:09:40;;;;;;;;;2.25;2.25;;;;;30.19;27.53;100827.19;5014897;28;45460;-78
2022/05/25 06:12:05;;;;;;;;;2.00;2.00;;;;;30.20;26.46;100817.16;4996878;28;45568;-77
2022/05/25 06:14:31;;;;;;;;;1.00;1.00;;;;;30.29;26.24;100828.00;5008315;28;46330;-78
2022/05/25 06:19:40;;;;;;;;;4.00;1.00;;;;;30.71;26.16;100834.75;5017533;28;45433;-79
2022/05/25 06:22:09;;;;;;;;;1.00;1.00;;;;;31.08;25.89;100835.59;5016264;28;45426;-78
2022/05/25 06:24:41;;;;;;;;;1.00;0.75;;;;;31.26;26.02;100850.06;5007956;28;45463;-77
2022/05/25 06:27:08;;;;;;;;;1.00;1.00;;;;;31.27;25.70;100849.06;4997975;28;45554;-78
2022/05/25 06:29:37;;;;;;;;;1.00;1.00;;;;;31.17;25.70;100851.91;4996773;28;45383;-77
2022/05/25 06:32:05;;;;;;;;;2.00;2.00;;;;;31.24;25.53;100863.03;4997077;28;45487;-79
2022/05/25 06:34:30;;;;;;;;;2.25;1.25;;;;;31.32;25.29;100864.97;5000025;28;46144;-78
2022/05/25 06:36:56;;;;;;;;;1.00;1.00;;;;;31.40;24.82;100859.56;4996167;28;45456;-79
2022/05/25 06:39:21;;;;;;;;;1.25;1.25;;;;;31.55;24.82;100865.31;5004157;28;45532;-79
2022/05/25 06:41:47;;;;;;;;;0.00;0.00;;;;;31.85;24.87;100858.47;5015008;28;45454;-79
2022/05/25 06:44:12;;;;;;;;;0.00;0.00;;;;;32.15;25.27;100867.19;5005282;28;45474;-78
2022/05/25 06:46:38;;;;;;;;;2.00;1.00;;;;;32.36;24.16;100869.47;5015729;28;45391;-79
2022/05/25 06:49:03;;;;;;;;;2.00;0.75;;;;;32.50;24.41;100883.53;5016701;28;45372;-78
2022/05/25 06:51:32;;;;;;;;;2.00;2.00;;;;;32.60;23.47;100887.00;5015998;28;45619;-78
2022/05/25 06:53:58;;;;;;;;;2.00;1.00;;;;;32.31;23.97;100887.41;5008000;28;46979;-78
2022/05/25 06:56:25;;;;;;;;;1.00;1.00;;;;;32.28;24.29;100885.00;4997654;28;45539;-77
2022/05/25 06:58:54;;;;;;;;;1.00;1.00;;;;;32.35;24.24;100883.31;4996053;28;45396;-79
2022/05/25 07:01:20;;;;;;;;;1.25;1.25;;;;;32.19;25.09;100892.31;4996135;28;45574;-77
2022/05/25 07:03:46;;;;;;;;;1.00;0.00;;;;;31.98;23.74;100893.56;5019350;28;46310;-78
2022/05/25 07:06:13;;;;;;;;;1.25;1.25;;;;;31.22;25.27;100908.75;5012245;28;45398;-77
2022/05/25 07:08:39;;;;;;;;;1.00;1.00;;;;;30.72;25.94;100898.34;5015655;28;45492;-79
2022/05/25 07:11:04;;;;;;;;;1.00;1.00;;;;;30.25;26.18;100889.25;5016376;28;45490;-79
2022/05/25 07:13:30;;;;;;;;;1.50;1.00;;;;;30.55;26.43;100886.38;5015492;28;45353;-79
2022/05/25 07:15:58;;;;;;;;;1.75;0.25;;;;;30.86;26.53;100891.50;5032170;28;45453;-79
2022/05/25 07:18:26;;;;;;;;;0.00;0.00;;;;;31.20;25.75;100888.91;5006604;28;45572;-78
2022/05/25 07:20:52;;;;;;;;;0.75;0.75;;;;;31.61;25.09;100897.47;5016166;28;45348;-77
2022/05/25 07:23:19;;;;;;;;;1.25;1.00;;;;;31.64;23.88;100905.34;5013864;28;47809;-78
2022/05/25 07:25:45;;;;;;;;;2.00;2.00;;;;;31.71;24.83;100920.03;5017393;28;45489;-77
2022/05/25 07:28:10;;;;;;;;;0.00;0.00;;;;;31.85;24.80;100924.03;5015767;28;45391;-78
2022/05/25 07:30:36;;;;;;;;;0.00;0.00;;;;;32.14;24.02;100920.13;5016129;28;45584;-78
2022/05/25 07:33:05;;;;;;;;;1.00;1.00;;;;;32.30;23.20;100924.84;5019659;28;46474;-77
2022/05/25 07:35:31;;;;;;;;;1.00;0.00;;;;;32.32;23.27;100927.41;5017416;28;45420;-79
2022/05/25 07:37:58;;;;;;;;;1.00;0.00;;;;;32.59;22.72;100929.03;5016977;28;45399;-78
2022/05/25 07:40:31;;;;;;;;;0.00;0.00;;;;;32.70;22.43;100925.16;5016371;28;45392;-78
2022/05/25 07:43:00;;;;;;;;;0.00;0.00;;;;;33.04;21.97;100927.78;5009847;28;48397;-78
2022/05/25 07:45:27;;;;;;;;;0.00;0.00;;;;;33.01;22.45;100928.13;4997507;28;45423;-80
2022/05/25 07:47:54;;;;;;;;;0.50;0.00;;;;;33.20;22.11;100931.59;4995974;28;45414;-78
2022/05/25 07:50:23;;;;;;;;;1.00;0.00;;;;;33.27;22.00;100928.00;4996622;28;45407;-78
2022/05/25 07:52:52;;;;;;;;;0.00;0.00;;;;;33.12;21.50;100935.16;5024531;28;45458;-79
2022/05/25 07:55:18;;;;;;;;;0.00;0.00;;;;;32.82;21.41;100917.50;5015559;28;45565;-84
2022/05/25 07:57:43;;;;;;;;;0.25;0.25;;;;;33.08;21.51;100920.91;5017158;28;45387;-81
2022/05/25 08:00:10;;;;;;;;;1.00;1.00;;;;;33.36;21.52;100937.06;5017879;28;45431;-81
2022/05/25 08:05:43;;;;;;;;;0.00;0.00;;;;;33.45;22.02;100947.00;5017242;28;45471;-82
2022/05/25 08:08:13;;;;;;;;;0.00;0.00;;;;;33.33;21.08;100948.38;5017743;28;45319;-82
2022/05/25 08:10:47;;;;;;;;;0.00;0.00;;;;;33.43;21.32;100943.53;5014336;28;45335;-82
2022/05/25 08:13:17;;;;;;;;;0.00;0.00;;;;;33.75;20.82;100951.94;4999101;28;45440;-82
2022/05/25 08:15:43;;;;;;;;;0.00;0.00;;;;;33.86;21.41;100951.59;5017566;28;45522;-83
2022/05/25 08:18:16;;;;;;;;;0.00;0.00;;;;;33.85;21.31;100951.78;5017253;28;45289;-82
2022/05/25 08:20:43;;;;;;;;;0.00;0.00;;;;;33.78;20.45;100944.25;5020822;28;45419;-81
2022/05/25 08:23:11;;;;;;;;;0.00;0.00;;;;;34.08;21.30;100957.34;5026748;28;45358;-82
2022/05/25 08:25:39;;;;;;;;;0.00;0.00;;;;;33.88;20.36;100944.03;4998939;28;45409;-82
2022/05/25 08:28:05;;;;;;;;;0.00;0.00;;;;;33.82;20.63;100942.84;5001364;28;45459;-79
2022/05/25 08:30:34;;;;;;;;;1.00;0.00;;;;;33.65;20.43;100942.00;4995341;28;45521;-79
2022/05/25 08:33:00;;;;;;;;;0.00;0.00;;;;;33.84;21.79;100934.44;4999513;28;46165;-77
2022/05/25 08:35:27;;;;;;;;;0.25;0.00;;;;;33.12;21.47;100946.09;5004711;28;45400;-78
2022/05/25 08:37:53;;;;;;;;;1.00;0.00;;;;;33.05;21.67;100951.38;4995448;28;45541;-78
2022/05/25 08:40:21;;;;;;;;;0.00;0.00;;;;;33.07;21.78;100943.88;4993591;28;45522;-78
2022/05/25 08:43:22;;;;;;;;;0.00;0.00;;;;;33.10;21.59;100943.53;4996334;28;45473;-79
2022/05/25 08:45:53;;;;;;;;;0.00;0.00;;;;;33.09;21.82;100952.75;4993981;28;45411;-78
2022/05/25 08:48:21;;;;;;;;;0.00;0.00;;;;;33.26;21.74;100950.06;4994339;28;45518;-78
2022/05/25 08:50:51;;;;;;;;;0.00;0.00;;;;;33.44;20.98;100949.91;4993673;28;45494;-78
2022/05/25 08:53:19;;;;;;;;;0.00;0.00;;;;;33.57;21.36;100949.38;5002889;28;46134;-79
2022/05/25 08:56:10;;;;;;;;;0.00;0.00;;;;;33.52;20.50;100947.13;5012499;28;45533;-78
2022/05/25 08:58:42;;;;;;;;;0.50;0.00;;;;;33.54;20.79;100941.50;5000553;28;45360;-78
2022/05/25 09:01:12;;;;;;;;;1.00;0.00;;;;;33.15;20.08;100950.34;5004965;28;45449;-77
2022/05/25 09:04:12;;;;;;;;;0.00;0.00;;;;;33.25;21.91;100957.44;5017465;28;47051;-77
2022/05/25 09:06:58;;;;;;;;;0.00;0.00;;;;;33.44;20.35;100950.75;5012320;28;45405;-78
2022/05/25 09:09:34;;;;;;;;;0.50;0.00;;;;;33.37;20.21;100948.88;5013602;28;45465;-78
2022/05/25 09:12:09;;;;;;;;;1.00;0.00;;;;;33.44;19.72;100961.69;5032165;28;45521;-78
2022/05/25 09:14:42;;;;;;;;;0.00;0.00;;;;;33.22;20.29;100956.91;5013269;28;47075;-78
2022/05/25 09:17:41;;;;;;;;;0.00;0.00;;;;;33.36;21.47;100949.88;5012722;28;45446;-78
2022/05/25 09:20:09;;;;;;;;;0.00;0.00;;;;;33.67;20.27;100952.78;5003870;28;45450;-78
2022/05/25 09:22:35;;;;;;;;;0.00;0.00;;;;;33.80;19.13;100961.34;5029156;28;45383;-77
2022/05/25 09:25:03;;;;;;;;;0.00;0.00;;;;;33.72;18.80;100952.25;5022335;28;45403;-79
2022/05/25 09:27:47;;;;;;;;;0.00;0.00;;;;;33.76;20.55;100948.19;5021580;28;45396;-79
2022/05/25 09:30:15;;;;;;;;;0.00;0.00;;;;;33.53;18.54;100943.38;5015214;28;45382;-78
2022/05/25 09:32:44;;;;;;;;;0.00;0.00;;;;;33.51;19.34;100945.44;5019342;28;45634;-78
2022/05/25 09:35:17;;;;;;;;;0.00;0.00;;;;;33.39;19.48;100936.72;5004891;28;45895;-78
2022/05/25 09:38:13;;;;;;;;;0.00;0.00;;;;;33.09;18.80;100952.75;5018492;28;45509;-80
2022/05/25 09:40:49;;;;;;;;;0.00;0.00;;;;;32.97;19.85;100959.59;5019068;28;45542;-81
2022/05/25 09:43:20;;;;;;;;;0.00;0.00;;;;;32.90;19.92;100958.53;5019203;28;45522;-82
2022/05/25 09:45:50;;;;;;;;;0.75;0.00;;;;;32.97;18.87;100958.75;5019274;28;47661;-77
2022/05/25 09:48:22;;;;;;;;;0.00;0.00;;;;;32.79;19.62;100967.06;5002639;28;45550;-82
2022/05/25 09:51:01;;;;;;;;;0.00;0.00;;;;;32.67;20.37;100964.63;5026616;28;45400;-82
2022/05/25 09:53:38;;;;;;;;;0.00;0.00;;;;;32.82;19.12;100956.63;5030151;28;45410;-81
2022/05/25 09:56:09;;;;;;;;;0.00;0.00;;;;;32.62;19.14;100967.00;5016538;28;46318;-83
2022/05/25 09:58:43;;;;;;;;;0.00;0.00;;;;;32.59;19.89;100970.06;5014933;28;45596;-82
2022/05/25 10:01:30;;;;;;;;;0.00;0.00;;;;;32.64;18.93;100975.03;5022565;28;45364;-82
2022/05/25 10:03:56;;;;;;;;;0.00;0.00;;;;;32.38;19.56;100978.69;5028717;28;45477;-81
2022/05/25 10:06:50;;;;;;;;;0.00;0.00;;;;;32.42;19.14;100978.19;5022260;28;46395;-81
2022/05/25 10:09:19;;;;;;;;;0.00;0.00;;;;;32.26;20.62;100972.63;5014342;28;45486;-81
2022/05/25 10:11:54;;;;;;;;;0.00;0.00;;;;;31.99;20.50;100966.34;5013489;28;45266;-82
2022/05/25 10:14:35;;;;;;;;;0.00;0.00;;;;;31.89;20.38;100960.97;5012845;28;45351;-81
2022/05/25 10:17:14;;;;;;;;;0.00;0.00;;;;;31.80;20.61;100961.09;5022292;28;46253;-82
2022/05/25 10:19:49;;;;;;;;;0.00;0.00;;;;;31.93;21.42;100968.84;5015633;28;45461;-81
2022/05/25 10:22:44;;;;;;;;;0.00;0.00;;;;;32.32;20.47;100974.72;5017291;28;45486;-82
2022/05/25 10:25:42;;;;;;;;;0.00;0.00;;;;;32.28;20.03;100962.41;5026300;28;45543;-81
2022/05/25 10:28:29;;;;;;;;;0.00;0.00;;;;;32.11;21.50;100974.28;5020177;28;46148;-83
2022/05/25 10:37:08;;;;;;;;;0.00;0.00;;;;;32.16;20.42;100977.38;5020045;28;45641;-80
2022/05/25 10:39:45;;;;;;;;;0.00;0.00;;;;;32.27;20.61;100968.06;5019590;28;45514;-79
2022/05/25 10:42:19;;;;;;;;;0.00;0.00;;;;;32.44;21.06;100966.25;5028748;28;45456;-79
2022/05/25 10:45:06;;;;;;;;;0.00;0.00;;;;;32.45;20.39;100976.13;5021945;28;45498;-78
2022/05/25 10:47:54;;;;;;;;;0.00;0.00;;;;;32.63;19.66;100967.84;5024940;28;45376;-79
2022/05/25 10:50:45;;;;;;;;;0.00;0.00;;;;;32.46;19.76;100966.91;5022967;28;46118;-79
2022/05/25 10:53:17;;;;;;;;;2.00;0.25;;;;;32.14;20.88;100963.00;5006186;28;45596;-79
2022/05/25 10:56:08;;;;;;;;;0.00;0.00;;;;;32.08;21.28;100963.63;5017529;28;45494;-77
2022/05/25 10:58:52;;;;;;;;;0.00;0.00;;;;;32.25;20.75;100965.47;5011445;28;45583;-78
2022/05/25 11:01:39;;;;;;;;;0.00;0.00;;;;;32.32;20.24;100961.06;5021278;28;45701;-79
2022/05/25 11:04:22;;;;;;;;;0.00;0.00;;;;;32.36;20.25;100961.59;5018318;28;45534;-75
2022/05/25 11:06:54;;;;;;;;;0.00;0.00;;;;;32.41;20.28;100960.06;5016595;28;45470;-85
2022/05/25 11:09:44;;;;;;;;;0.00;0.00;;;;;32.57;19.99;100969.38;5022464;28;45321;-77
2022/05/25 11:12:26;;;;;;;;;0.00;0.00;;;;;32.42;20.91;100966.41;5020114;28;46565;-77
2022/05/25 11:15:07;;;;;;;;;0.00;0.00;;;;;32.35;21.03;100970.81;5028701;28;45438;-77
2022/05/25 11:17:35;;;;;;;;;0.00;0.00;;;;;32.31;20.03;100981.22;5008584;28;45464;-77
2022/05/25 11:20:28;;;;;;;;;0.00;0.00;;;;;32.18;20.34;100962.53;5033612;28;45380;-76
2022/05/25 11:23:31;;;;;;;;;1.00;0.00;;;;;32.02;20.78;100966.00;5020083;28;46239;-78
2022/05/25 11:26:28;;;;;;;;;0.00;0.00;;;;;31.87;20.46;100978.53;5028618;28;45623;-77
2022/05/25 11:29:18;;;;;;;;;0.00;0.00;;;;;31.77;20.25;100975.06;5005190;28;45477;-77
2022/05/25 11:31:53;;;;;;;;;0.00;0.00;;;;;31.55;21.68;100968.22;5018194;28;45540;-78
2022/05/25 11:34:41;;;;;;;;;0.00;0.00;;;;;30.98;21.40;100967.50;5017221;28;45394;-77
2022/05/25 11:37:25;;;;;;;;;0.00;0.00;;;;;30.99;22.21;100971.97;5021361;28;45403;-77
2022/05/25 11:40:31;;;;;;;;;1.00;0.00;;;;;31.15;21.88;100971.25;5020291;28;45499;-77
2022/05/25 11:43:03;;;;;;;;;0.00;0.00;;;;;30.83;21.82;100967.16;5018938;28;45446;-78
2022/05/25 11:45:58;;;;;;;;;0.00;0.00;;;;;30.68;22.31;100967.84;5015450;28;45554;-77
2022/05/25 11:48:43;;;;;;;;;0.00;0.00;;;;;30.73;21.24;100962.78;5013626;28;45595;-77
2022/05/25 11:51:36;;;;;;;;;0.00;0.00;;;;;30.71;22.31;100957.47;5023168;28;45434;-80
2022/05/25 11:54:11;;;;;;;;;0.00;0.00;;;;;30.60;21.70;100969.44;5010084;28;45404;-77
2022/05/25 11:56:55;;;;;;;;;0.00;0.00;;;;;30.64;22.49;100965.41;5017297;28;45956;-76
2022/05/25 11:59:39;;;;;;;;;0.00;0.00;;;;;30.50;22.07;100965.06;5002697;28;45570;-78
2022/05/25 12:02:27;;;;;;;;;0.00;0.00;;;;;29.99;22.91;100976.28;5023017;28;45454;-78
2022/05/25 12:05:15;;;;;;;;;0.00;0.00;;;;;29.59;23.19;100974.59;5006736;28;45317;-76